Time;durP1;ratioP1;P1;durP2;ratioP2;P2;SDS_P1;SDS_P2;PMS_P1;PMS_P2;Temp;Humidity;BMP_temperature;BMP_pressure;BME280_temperature;BME280_humidity;BME280_pressure;Samples;Min_cycle;Max_cycle;Signal;HPM_P1;HPM_P2
2022/06/18 00:01:33;;;;;;;2.00;1.48;;;;;;;;;;5000173;28;20212;-59
2022/06/18 00:04:02;;;;;;;2.40;1.83;;;;;;;;;;5000302;28;20229;-60
2022/06/18 00:06:31;;;;;;;3.77;1.97;;;;;;;;;;5000489;28;20267;-60
2022/06/18 00:08:59;;;;;;;2.80;1.70;;;;;;;;;;5000117;28;20240;-61
2022/06/18 00:14:14;;;;;;;4.13;2.10;;;;;;;;;;5000048;28;20263;-61
2022/06/18 00:16:41;;;;;;;2.97;2.28;;;;;;;;;;5007874;28;20246;-61
2022/06/18 00:19:10;;;;;;;6.83;1.70;;;;;;;;;;5005057;28;20206;-61
2022/06/18 00:21:38;;;;;;;2.70;1.60;;;;;;;;;;5000222;28;20207;-61
2022/06/18 00:24:12;;;;;;;1.75;1.50;;;;;;;;;;5018796;28;20259;-61
2022/06/18 00:26:40;;;;;;;2.77;1.90;;;;;;;;;;4999775;28;20576;-61
2022/06/18 00:29:10;;;;;;;2.40;1.70;;;;;;;;;;5000171;28;20218;-61
2022/06/18 00:31:40;;;;;;;3.47;2.00;;;;;;;;;;4999879;28;20251;-61
2022/06/18 00:34:08;;;;;;;4.43;1.73;;;;;;;;;;5001004;28;20232;-61
2022/06/18 00:36:37;;;;;;;2.55;1.90;;;;;;;;;;4999933;28;20204;-60
2022/06/18 00:39:07;;;;;;;2.70;2.03;;;;;;;;;;4999537;28;20216;-61
2022/06/18 00:41:36;;;;;;;5.67;1.60;;;;;;;;;;4998351;28;20202;-61
2022/06/18 00:44:06;;;;;;;6.50;2.03;;;;;;;;;;5002165;28;20289;-61
2022/06/18 00:46:36;;;;;;;1.90;1.80;;;;;;;;;;4999761;28;20220;-61
2022/06/18 00:49:10;;;;;;;4.30;2.00;;;;;;;;;;5006273;28;20212;-61
2022/06/18 00:51:41;;;;;;;3.67;1.87;;;;;;;;;;5019198;28;20269;-61
2022/06/18 00:54:15;;;;;;;5.73;1.53;;;;;;;;;;5018642;28;20591;-60
2022/06/18 00:56:55;;;;;;;4.80;2.07;;;;;;;;;;5018702;28;20778;-59
2022/06/18 00:59:24;;;;;;;2.37;1.90;;;;;;;;;;5019181;28;20211;-61
2022/06/18 01:01:54;;;;;;;3.20;1.90;;;;;;;;;;5018611;28;20210;-60
2022/06/18 01:04:30;;;;;;;2.40;1.83;;;;;;;;;;5018618;28;20235;-60
2022/06/18 01:07:02;;;;;;;3.03;2.00;;;;;;;;;;5019134;28;20236;-60
2022/06/18 01:09:31;;;;;;;4.27;1.87;;;;;;;;;;5018739;28;20660;-60
2022/06/18 01:11:59;;;;;;;1.70;1.60;;;;;;;;;;5018315;28;20264;-60
2022/06/18 01:14:28;;;;;;;3.17;2.27;;;;;;;;;;5018381;28;20230;-60
2022/06/18 01:16:57;;;;;;;2.77;1.70;;;;;;;;;;5018533;28;20579;-60
2022/06/18 01:19:30;;;;;;;3.00;1.90;;;;;;;;;;5001570;28;20697;-60
2022/06/18 01:22:02;;;;;;;2.13;2.03;;;;;;;;;;4999184;28;20205;-60
2022/06/18 01:24:34;;;;;;;1.80;1.70;;;;;;;;;;5019382;28;20231;-60
2022/06/18 01:27:02;;;;;;;2.80;1.77;;;;;;;;;;4998815;28;20208;-60
2022/06/18 01:29:30;;;;;;;5.17;2.10;;;;;;;;;;4999058;28;20216;-60
2022/06/18 01:31:58;;;;;;;2.03;1.83;;;;;;;;;;4998552;28;20241;-60
2022/06/18 01:34:27;;;;;;;2.13;1.83;;;;;;;;;;5000477;28;20716;-60
2022/06/18 01:36:55;;;;;;;1.90;1.67;;;;;;;;;;4998760;28;20267;-60
2022/06/18 01:39:24;;;;;;;3.07;1.93;;;;;;;;;;4998720;28;20556;-60
2022/06/18 01:41:57;;;;;;;3.23;2.60;;;;;;;;;;4998620;28;20208;-60
2022/06/18 01:44:26;;;;;;;3.03;1.80;;;;;;;;;;5000874;28;20231;-60
2022/06/18 01:46:56;;;;;;;2.10;2.00;;;;;;;;;;4998599;28;20218;-60
2022/06/18 01:49:28;;;;;;;1.80;1.70;;;;;;;;;;4998249;28;20215;-60
2022/06/18 01:51:57;;;;;;;4.57;1.53;;;;;;;;;;4998204;28;20232;-60
2022/06/18 01:54:27;;;;;;;1.97;1.73;;;;;;;;;;4998056;28;20233;-60
2022/06/18 01:56:58;;;;;;;3.10;1.87;;;;;;;;;;4997935;28;20238;-60
2022/06/18 01:59:28;;;;;;;4.07;1.77;;;;;;;;;;4998288;28;20280;-60
2022/06/18 02:01:56;;;;;;;2.20;2.10;;;;;;;;;;4998025;28;20211;-60
2022/06/18 02:04:25;;;;;;;2.70;2.50;;;;;;;;;;4997650;28;20290;-60
2022/06/18 02:06:53;;;;;;;2.20;2.00;;;;;;;;;;5004865;28;20211;-60
2022/06/18 02:09:30;;;;;;;2.23;1.97;;;;;;;;;;5017817;28;20615;-60
2022/06/18 02:12:02;;;;;;;3.77;1.70;;;;;;;;;;5017821;28;20272;-60
2022/06/18 02:14:33;;;;;;;4.60;2.13;;;;;;;;;;5017889;28;20239;-60
2022/06/18 02:17:02;;;;;;;5.37;4.60;;;;;;;;;;5017939;28;20309;-60
2022/06/18 02:19:31;;;;;;;5.10;2.60;;;;;;;;;;5000344;28;20211;-60
2022/06/18 02:21:59;;;;;;;3.07;2.13;;;;;;;;;;4998259;28;20572;-60
2022/06/18 02:24:28;;;;;;;2.97;2.10;;;;;;;;;;5017611;28;20233;-60
2022/06/18 02:26:56;;;;;;;3.10;1.70;;;;;;;;;;4998039;28;20638;-60
2022/06/18 02:29:27;;;;;;;3.27;1.97;;;;;;;;;;4998097;28;20236;-60
2022/06/18 02:31:56;;;;;;;3.27;1.80;;;;;;;;;;4998234;28;20265;-60
2022/06/18 02:34:27;;;;;;;2.20;2.00;;;;;;;;;;5000474;28;20255;-60
2022/06/18 02:36:55;;;;;;;2.37;2.17;;;;;;;;;;4997770;28;20258;-60
2022/06/18 02:39:26;;;;;;;2.07;1.87;;;;;;;;;;4998172;28;20294;-60
2022/06/18 02:41:57;;;;;;;4.13;2.13;;;;;;;;;;4997814;28;20213;-60
2022/06/18 02:44:26;;;;;;;3.53;2.50;;;;;;;;;;5000785;28;20269;-60
2022/06/18 02:46:55;;;;;;;5.73;2.13;;;;;;;;;;4998103;28;20214;-60
2022/06/18 02:49:23;;;;;;;2.43;2.03;;;;;;;;;;4997801;28;20222;-60
2022/06/18 02:51:51;;;;;;;3.20;2.10;;;;;;;;;;4997616;28;20255;-60
2022/06/18 02:54:19;;;;;;;5.67;5.17;;;;;;;;;;4997857;28;20235;-60
2022/06/18 02:56:48;;;;;;;5.83;2.50;;;;;;;;;;4997482;28;20290;-60
2022/06/18 02:59:16;;;;;;;2.20;2.00;;;;;;;;;;4997762;28;20215;-60
2022/06/18 03:01:45;;;;;;;2.20;1.93;;;;;;;;;;4997870;28;20208;-60
2022/06/18 03:04:13;;;;;;;3.60;2.00;;;;;;;;;;4997445;28;20599;-60
2022/06/18 03:06:41;;;;;;;3.90;2.37;;;;;;;;;;5000964;28;20209;-60
2022/06/18 03:09:10;;;;;;;2.27;2.07;;;;;;;;;;5001306;28;20694;-60
2022/06/18 03:14:25;;;;;;;3.20;2.40;;;;;;;;;;4999134;28;20230;-60
2022/06/18 03:16:55;;;;;;;4.33;2.60;;;;;;;;;;5010418;28;20207;-60
2022/06/18 03:19:29;;;;;;;2.27;2.07;;;;;;;;;;5004200;28;20282;-60
2022/06/18 03:22:01;;;;;;;2.83;2.07;;;;;;;;;;5005602;28;20195;-60
2022/06/18 03:24:29;;;;;;;2.60;2.20;;;;;;;;;;5015854;28;20700;-60
2022/06/18 03:26:57;;;;;;;5.20;2.50;;;;;;;;;;5006530;28;20693;-60
2022/06/18 03:29:25;;;;;;;2.57;1.90;;;;;;;;;;5002147;28;20732;-60
2022/06/18 03:31:53;;;;;;;2.87;2.30;;;;;;;;;;5013270;28;20768;-60
2022/06/18 03:34:22;;;;;;;3.70;1.90;;;;;;;;;;5014385;28;20289;-60
2022/06/18 03:36:50;;;;;;;5.57;2.33;;;;;;;;;;5009219;28;20247;-60
2022/06/18 03:39:18;;;;;;;2.50;1.90;;;;;;;;;;5004024;28;20236;-60
2022/06/18 03:41:46;;;;;;;4.83;1.90;;;;;;;;;;5005022;28;20228;-60
2022/06/18 03:44:14;;;;;;;6.50;2.43;;;;;;;;;;5002851;28;20731;-60
2022/06/18 03:46:43;;;;;;;2.40;2.20;;;;;;;;;;5000800;28;20208;-60
2022/06/18 03:49:15;;;;;;;2.20;2.00;;;;;;;;;;5000277;28;20744;-59
2022/06/18 03:51:45;;;;;;;4.00;2.37;;;;;;;;;;5000517;28;20229;-60
2022/06/18 03:54:13;;;;;;;3.53;2.80;;;;;;;;;;5000754;28;20268;-58
2022/06/18 03:56:41;;;;;;;5.40;3.07;;;;;;;;;;5000400;28;20326;-58
2022/06/18 03:59:10;;;;;;;5.00;3.23;;;;;;;;;;5000512;28;20263;-58
2022/06/18 04:01:40;;;;;;;3.50;3.03;;;;;;;;;;5000507;28;20232;-59
2022/06/18 04:04:08;;;;;;;7.73;3.73;;;;;;;;;;4999947;28;20250;-59
2022/06/18 04:06:38;;;;;;;4.63;3.33;;;;;;;;;;5000443;28;20212;-60
2022/06/18 04:09:08;;;;;;;4.73;3.67;;;;;;;;;;5000206;28;20335;-60
2022/06/18 04:11:36;;;;;;;6.47;4.00;;;;;;;;;;5006770;28;20211;-60
2022/06/18 04:14:04;;;;;;;7.77;4.47;;;;;;;;;;5019923;28;20228;-60
2022/06/18 04:16:33;;;;;;;8.53;4.60;;;;;;;;;;5019670;28;20228;-60
2022/06/18 04:19:01;;;;;;;9.13;4.67;;;;;;;;;;5006243;28;20635;-60
2022/06/18 04:21:30;;;;;;;7.27;4.63;;;;;;;;;;5007151;28;20208;-60
2022/06/18 04:23:58;;;;;;;4.87;4.10;;;;;;;;;;5029136;28;20276;-60
2022/06/18 04:26:27;;;;;;;6.80;4.30;;;;;;;;;;4999890;28;20262;-60
2022/06/18 04:28:55;;;;;;;5.20;3.43;;;;;;;;;;5000084;28;20247;-60
2022/06/18 04:31:23;;;;;;;6.70;3.70;;;;;;;;;;4999960;28;20212;-60
2022/06/18 04:33:51;;;;;;;5.57;2.90;;;;;;;;;;5002398;28;20609;-60
2022/06/18 04:36:21;;;;;;;5.53;3.40;;;;;;;;;;4999808;28;20298;-60
2022/06/18 04:38:49;;;;;;;3.90;2.93;;;;;;;;;;4999608;28;20237;-60
2022/06/18 04:41:17;;;;;;;4.43;3.10;;;;;;;;;;4999822;28;20242;-60
2022/06/18 04:43:46;;;;;;;6.07;3.20;;;;;;;;;;5002830;28;20224;-60
2022/06/18 04:46:14;;;;;;;8.77;4.57;;;;;;;;;;4999874;28;20244;-60
2022/06/18 04:48:42;;;;;;;12.40;4.53;;;;;;;;;;4999423;28;20211;-59
2022/06/18 04:51:10;;;;;;;8.53;4.90;;;;;;;;;;4999691;28;20239;-60
2022/06/18 04:53:38;;;;;;;14.70;5.23;;;;;;;;;;4999287;28;20267;-60
2022/06/18 04:56:06;;;;;;;9.63;5.00;;;;;;;;;;4999030;28;20245;-60
2022/06/18 04:58:34;;;;;;;8.33;4.30;;;;;;;;;;4999178;28;20579;-60
2022/06/18 05:01:04;;;;;;;12.93;4.93;;;;;;;;;;4999207;28;20240;-60
2022/06/18 05:03:32;;;;;;;8.33;4.03;;;;;;;;;;4998823;28;20652;-60
2022/06/18 05:06:00;;;;;;;7.23;3.70;;;;;;;;;;4999468;28;20267;-60
2022/06/18 05:08:28;;;;;;;7.00;3.97;;;;;;;;;;4999221;28;20231;-60
2022/06/18 05:10:56;;;;;;;6.67;4.37;;;;;;;;;;4998903;28;20616;-58
2022/06/18 05:13:24;;;;;;;6.90;4.00;;;;;;;;;;4998950;28;20236;-60
2022/06/18 05:15:54;;;;;;;5.47;3.03;;;;;;;;;;5000281;28;20208;-60
2022/06/18 05:18:24;;;;;;;7.10;3.43;;;;;;;;;;5010183;28;20553;-60
2022/06/18 05:20:53;;;;;;;8.90;4.73;;;;;;;;;;4999101;28;20213;-60
2022/06/18 05:23:21;;;;;;;5.07;3.20;;;;;;;;;;5010420;28;20221;-60
2022/06/18 05:25:52;;;;;;;7.33;3.60;;;;;;;;;;5006040;28;20303;-59
2022/06/18 05:28:20;;;;;;;9.40;3.93;;;;;;;;;;4998314;28;20836;-60
2022/06/18 05:30:48;;;;;;;5.63;3.23;;;;;;;;;;4998738;28;20294;-60
2022/06/18 05:33:16;;;;;;;5.20;3.13;;;;;;;;;;4998437;28;20272;-60
2022/06/18 05:35:45;;;;;;;4.93;3.83;;;;;;;;;;5000744;28;20214;-60
2022/06/18 05:38:15;;;;;;;6.80;3.17;;;;;;;;;;4998506;28;20723;-60
2022/06/18 05:40:43;;;;;;;6.33;3.17;;;;;;;;;;4998358;28;20664;-60
2022/06/18 05:43:11;;;;;;;5.23;2.80;;;;;;;;;;4999992;28;20634;-60
2022/06/18 05:45:39;;;;;;;5.77;3.07;;;;;;;;;;4999554;28;20215;-60
2022/06/18 05:48:11;;;;;;;6.90;3.30;;;;;;;;;;4998451;28;20275;-60
2022/06/18 05:50:39;;;;;;;4.27;2.67;;;;;;;;;;4998446;28;20220;-60
2022/06/18 05:53:08;;;;;;;5.90;3.30;;;;;;;;;;4998430;28;20228;-60
2022/06/18 05:55:36;;;;;;;3.20;2.90;;;;;;;;;;4998586;28;20256;-60
2022/06/18 05:58:04;;;;;;;5.80;3.03;;;;;;;;;;4998061;28;20722;-60
2022/06/18 06:00:33;;;;;;;3.93;2.73;;;;;;;;;;4998350;28;20209;-60
2022/06/18 06:03:01;;;;;;;4.00;2.77;;;;;;;;;;4998103;28;20634;-60
2022/06/18 06:05:29;;;;;;;5.03;2.73;;;;;;;;;;4997784;28;20263;-60
2022/06/18 06:07:57;;;;;;;2.97;2.77;;;;;;;;;;4998039;28;20201;-59
2022/06/18 06:13:13;;;;;;;3.17;2.90;;;;;;;;;;4998078;28;20276;-60
2022/06/18 06:15:41;;;;;;;17.30;8.80;;;;;;;;;;4998245;28;20258;-60
2022/06/18 06:18:11;;;;;;;3.67;3.03;;;;;;;;;;5011386;28;20301;-60
2022/06/18 06:20:40;;;;;;;13.63;8.37;;;;;;;;;;4998019;28;20246;-60
2022/06/18 06:23:08;;;;;;;3.72;3.10;;;;;;;;;;5005700;28;20709;-60
2022/06/18 06:25:38;;;;;;;9.38;5.82;;;;;;;;;;5008737;28;20717;-60
2022/06/18 06:28:08;;;;;;;5.38;3.13;;;;;;;;;;4997942;28;20259;-60
2022/06/18 06:30:36;;;;;;;4.95;2.40;;;;;;;;;;4997935;28;20248;-60
2022/06/18 06:33:04;;;;;;;3.13;2.50;;;;;;;;;;4998035;28;20243;-60
2022/06/18 06:35:32;;;;;;;4.65;2.70;;;;;;;;;;4999204;28;20241;-60
2022/06/18 06:38:01;;;;;;;4.20;2.90;;;;;;;;;;4998105;28;20211;-60
2022/06/18 06:40:29;;;;;;;4.50;2.53;;;;;;;;;;5001287;28;20216;-60
2022/06/18 06:42:58;;;;;;;4.38;2.85;;;;;;;;;;5001831;28;20676;-60
2022/06/18 06:45:28;;;;;;;5.43;3.10;;;;;;;;;;5001676;28;20244;-60
2022/06/18 06:47:56;;;;;;;7.95;3.30;;;;;;;;;;5001879;28;20211;-60
2022/06/18 06:50:25;;;;;;;7.28;3.25;;;;;;;;;;5001717;28;20238;-60
2022/06/18 06:52:53;;;;;;;3.33;3.05;;;;;;;;;;5001793;28;20216;-60
2022/06/18 06:58:33;;;;;;;3.17;2.53;;;;;;;;;;4997541;28;20325;-60
2022/06/18 07:01:02;;;;;;;6.13;3.00;;;;;;;;;;4999374;28;20220;-60
2022/06/18 07:03:31;;;;;;;4.28;2.90;;;;;;;;;;5005727;28;20637;-60
2022/06/18 07:06:01;;;;;;;4.80;2.90;;;;;;;;;;5021139;28;20237;-60
2022/06/18 07:08:29;;;;;;;4.68;3.72;;;;;;;;;;5021297;28;20279;-60
2022/06/18 07:10:57;;;;;;;4.32;2.90;;;;;;;;;;5020762;28;20211;-60
2022/06/18 07:13:29;;;;;;;2.72;2.50;;;;;;;;;;5020716;28;20240;-60
2022/06/18 07:15:59;;;;;;;4.28;2.72;;;;;;;;;;5020780;28;20675;-60
2022/06/18 07:18:31;;;;;;;4.15;2.35;;;;;;;;;;5011598;28;20227;-60
2022/06/18 07:20:59;;;;;;;6.80;2.88;;;;;;;;;;5001225;28;20216;-60
2022/06/18 07:23:27;;;;;;;4.85;2.42;;;;;;;;;;5014254;28;20230;-60
2022/06/18 07:25:55;;;;;;;3.75;2.80;;;;;;;;;;5006272;28;20209;-60
2022/06/18 07:28:23;;;;;;;4.38;2.45;;;;;;;;;;5001058;28;20236;-60
2022/06/18 07:30:51;;;;;;;2.28;2.15;;;;;;;;;;5000927;28;20247;-60
2022/06/18 07:33:22;;;;;;;2.50;2.30;;;;;;;;;;5000853;28;20236;-60
2022/06/18 07:35:50;;;;;;;3.45;2.58;;;;;;;;;;5001111;28;20208;-60
2022/06/18 07:38:18;;;;;;;4.93;2.38;;;;;;;;;;5000802;28;20213;-60
2022/06/18 07:40:48;;;;;;;2.95;2.42;;;;;;;;;;5000498;28;20279;-60
2022/06/18 07:43:17;;;;;;;2.50;2.20;;;;;;;;;;5002622;28;20235;-60
2022/06/18 07:45:46;;;;;;;3.65;3.00;;;;;;;;;;5000887;28;20201;-60
2022/06/18 07:48:14;;;;;;;2.30;2.10;;;;;;;;;;5000629;28;20212;-60
2022/06/18 07:50:46;;;;;;;2.60;2.40;;;;;;;;;;5000200;28;20220;-60
2022/06/18 07:53:15;;;;;;;3.72;2.15;;;;;;;;;;5000577;28;20231;-60
2022/06/18 07:55:43;;;;;;;5.10;2.38;;;;;;;;;;5000233;28;20228;-60
2022/06/18 07:58:11;;;;;;;3.50;2.15;;;;;;;;;;5000740;28;20214;-60
2022/06/18 08:00:40;;;;;;;3.60;2.63;;;;;;;;;;5000400;28;20222;-60
2022/06/18 08:03:08;;;;;;;1.88;1.77;;;;;;;;;;4999981;28;20324;-60
2022/06/18 08:05:36;;;;;;;3.60;2.50;;;;;;;;;;5000345;28;20206;-60
2022/06/18 08:08:06;;;;;;;3.50;2.00;;;;;;;;;;5000194;28;20218;-60
2022/06/18 08:10:54;;;;;;;2.88;2.25;;;;;;;;;;5000199;28;20215;-60
2022/06/18 08:13:22;;;;;;;8.07;2.42;;;;;;;;;;4999765;28;20284;-60
2022/06/18 08:15:50;;;;;;;3.47;2.35;;;;;;;;;;5000842;28;20289;-60
2022/06/18 08:18:18;;;;;;;3.42;2.40;;;;;;;;;;5011871;28;20561;-60
2022/06/18 08:20:57;;;;;;;2.15;2.00;;;;;;;;;;5000219;28;20208;-60
2022/06/18 08:23:26;;;;;;;3.80;2.10;;;;;;;;;;5012338;28;20223;-60
2022/06/18 08:25:54;;;;;;;3.92;2.13;;;;;;;;;;5006334;28;20239;-60
2022/06/18 08:28:22;;;;;;;2.35;2.13;;;;;;;;;;5000099;28;20240;-60
2022/06/18 08:30:50;;;;;;;4.28;2.17;;;;;;;;;;4999807;28;20774;-60
2022/06/18 08:33:18;;;;;;;3.45;2.25;;;;;;;;;;4999592;28;20267;-60
2022/06/18 08:35:46;;;;;;;3.25;2.67;;;;;;;;;;5002286;28;20231;-60
2022/06/18 08:38:14;;;;;;;2.78;2.58;;;;;;;;;;4999402;28;20622;-60
2022/06/18 08:40:55;;;;;;;3.30;2.88;;;;;;;;;;4999400;28;20269;-60
2022/06/18 08:43:32;;;;;;;3.28;2.88;;;;;;;;;;5002624;28;20228;-59
2022/06/18 08:46:06;;;;;;;4.13;3.17;;;;;;;;;;5011338;28;20209;-60
2022/06/18 08:48:47;;;;;;;5.45;2.60;;;;;;;;;;4999434;28;20204;-59
2022/06/18 08:51:22;;;;;;;6.05;2.40;;;;;;;;;;4999321;28;20236;-60
2022/06/18 08:54:05;;;;;;;2.45;2.25;;;;;;;;;;4999490;28;20239;-60
2022/06/18 08:56:39;;;;;;;2.97;2.60;;;;;;;;;;4999008;28;20598;-60
2022/06/18 08:59:12;;;;;;;5.75;2.47;;;;;;;;;;4999361;28;20213;-59
2022/06/18 09:01:43;;;;;;;2.50;2.30;;;;;;;;;;4999152;28;20209;-60
2022/06/18 09:04:16;;;;;;;3.95;2.60;;;;;;;;;;4998421;28;20228;-60
2022/06/18 09:06:54;;;;;;;2.83;2.58;;;;;;;;;;4999082;28;20212;-60
2022/06/18 09:09:26;;;;;;;4.97;3.08;;;;;;;;;;4999238;28;20236;-60
2022/06/18 09:11:59;;;;;;;6.07;3.00;;;;;;;;;;4999190;28;20240;-60
2022/06/18 09:14:29;;;;;;;2.65;2.33;;;;;;;;;;4998771;28;20597;-60
2022/06/18 09:17:01;;;;;;;3.05;2.40;;;;;;;;;;5008778;28;20203;-60
2022/06/18 09:19:30;;;;;;;3.00;2.70;;;;;;;;;;5001317;28;20214;-60
2022/06/18 09:21:59;;;;;;;5.88;2.85;;;;;;;;;;4998994;28;20215;-60
2022/06/18 09:24:30;;;;;;;3.35;3.10;;;;;;;;;;5017798;28;20734;-60
2022/06/18 09:27:03;;;;;;;3.95;3.25;;;;;;;;;;4998718;28;20243;-60
2022/06/18 09:29:34;;;;;;;3.83;3.03;;;;;;;;;;5005375;28;20649;-60
2022/06/18 09:32:12;;;;;;;4.32;3.38;;;;;;;;;;5018412;28;20206;-60
2022/06/18 09:34:43;;;;;;;3.65;2.55;;;;;;;;;;5010302;28;20695;-60
2022/06/18 09:37:14;;;;;;;6.85;2.58;;;;;;;;;;4998523;28;20724;-60
2022/06/18 09:39:42;;;;;;;4.38;2.92;;;;;;;;;;4998722;28;20212;-60
2022/06/18 09:42:15;;;;;;;4.10;2.80;;;;;;;;;;4998540;28;20235;-60
2022/06/18 09:44:46;;;;;;;2.88;2.65;;;;;;;;;;5001445;28;20290;-60
2022/06/18 09:47:17;;;;;;;2.63;2.38;;;;;;;;;;4998742;28;20208;-60
2022/06/18 09:49:46;;;;;;;3.67;2.78;;;;;;;;;;4998098;28;20212;-60
2022/06/18 09:52:16;;;;;;;2.65;2.42;;;;;;;;;;5004855;28;20208;-60
2022/06/18 09:54:47;;;;;;;3.42;2.67;;;;;;;;;;5018045;28;20250;-60
2022/06/18 09:57:18;;;;;;;3.55;2.95;;;;;;;;;;5017555;28;20243;-60
2022/06/18 09:59:49;;;;;;;7.88;2.50;;;;;;;;;;5017974;28;20246;-61
2022/06/18 10:02:18;;;;;;;4.72;3.03;;;;;;;;;;5017952;28;20236;-58
2022/06/18 10:07:35;;;;;;;3.35;2.92;;;;;;;;;;5018215;28;20208;-60
2022/06/18 10:10:05;;;;;;;4.60;3.80;;;;;;;;;;5017532;28;20211;-58
2022/06/18 10:12:36;;;;;;;7.93;2.90;;;;;;;;;;5017930;28;20207;-58
2022/06/18 10:15:06;;;;;;;4.60;3.13;;;;;;;;;;5017649;28;20239;-60
2022/06/18 10:17:39;;;;;;;4.78;3.08;;;;;;;;;;5016028;28;20200;-60
2022/06/18 10:20:12;;;;;;;4.55;3.60;;;;;;;;;;4997810;28;20811;-58
2022/06/18 10:22:44;;;;;;;3.40;2.78;;;;;;;;;;4998237;28;20204;-59
2022/06/18 10:25:22;;;;;;;2.83;2.63;;;;;;;;;;5015407;28;20257;-59
2022/06/18 10:27:56;;;;;;;3.63;2.72;;;;;;;;;;4997782;28;20582;-58
2022/06/18 10:30:27;;;;;;;5.22;2.80;;;;;;;;;;4997810;28;20212;-59
2022/06/18 10:32:58;;;;;;;8.60;3.40;;;;;;;;;;4997678;28;20209;-59
2022/06/18 10:35:32;;;;;;;5.07;2.72;;;;;;;;;;4998619;28;20303;-59
2022/06/18 10:38:07;;;;;;;2.78;2.55;;;;;;;;;;4997811;28;20591;-59
2022/06/18 10:40:45;;;;;;;7.22;2.65;;;;;;;;;;4997673;28;20208;-59
2022/06/18 10:43:24;;;;;;;3.05;2.85;;;;;;;;;;4999491;28;20232;-59
2022/06/18 10:45:54;;;;;;;4.05;2.42;;;;;;;;;;5009558;28;20211;-59
2022/06/18 10:48:25;;;;;;;2.88;2.67;;;;;;;;;;4997657;28;20247;-59
2022/06/18 10:50:54;;;;;;;4.57;3.00;;;;;;;;;;4997833;28;20240;-59
2022/06/18 10:53:23;;;;;;;4.63;2.83;;;;;;;;;;4997911;28;20279;-60
2022/06/18 10:55:58;;;;;;;2.75;2.30;;;;;;;;;;4997348;28;20666;-59
2022/06/18 10:58:28;;;;;;;4.93;2.75;;;;;;;;;;4997807;28;20211;-59
2022/06/18 11:00:58;;;;;;;6.70;3.00;;;;;;;;;;4997629;28;20219;-59
2022/06/18 11:03:28;;;;;;;6.25;3.17;;;;;;;;;;4997259;28;20283;-59
2022/06/18 11:05:56;;;;;;;7.05;2.78;;;;;;;;;;4997718;28;20209;-59
2022/06/18 11:08:25;;;;;;;7.03;3.03;;;;;;;;;;4997460;28;20707;-59
2022/06/18 11:10:56;;;;;;;3.88;2.70;;;;;;;;;;4997736;28;20205;-59
2022/06/18 11:13:27;;;;;;;6.15;3.10;;;;;;;;;;5004538;28;20223;-59
2022/06/18 11:16:11;;;;;;;3.80;2.88;;;;;;;;;;5017240;28;20239;-59
2022/06/18 11:18:43;;;;;;;3.63;2.75;;;;;;;;;;5006587;28;20205;-59
2022/06/18 11:21:14;;;;;;;4.10;2.72;;;;;;;;;;4997474;28;20259;-59
2022/06/18 11:23:46;;;;;;;5.30;3.25;;;;;;;;;;5014738;28;20224;-59
2022/06/18 11:26:34;;;;;;;3.70;3.30;;;;;;;;;;4998960;28;20314;-60
2022/06/18 11:29:07;;;;;;;3.30;3.00;;;;;;;;;;5000801;28;20213;-60
2022/06/18 11:31:43;;;;;;;4.03;3.30;;;;;;;;;;5001230;28;20255;-60
2022/06/18 11:34:19;;;;;;;4.07;3.25;;;;;;;;;;5002978;28;20291;-60
2022/06/18 11:36:48;;;;;;;10.05;3.28;;;;;;;;;;5000653;28;20658;-60
2022/06/18 11:39:32;;;;;;;8.63;3.40;;;;;;;;;;5000674;28;20213;-60
2022/06/18 11:42:02;;;;;;;6.95;3.50;;;;;;;;;;5000647;28;20557;-59
2022/06/18 11:44:34;;;;;;;4.53;3.28;;;;;;;;;;5003858;28;20239;-60
2022/06/18 11:47:08;;;;;;;3.53;3.20;;;;;;;;;;5000492;28;20623;-59
2022/06/18 11:49:39;;;;;;;4.30;3.17;;;;;;;;;;5000274;28;20278;-60
2022/06/18 11:52:11;;;;;;;7.40;3.75;;;;;;;;;;5000480;28;20216;-59
2022/06/18 11:54:41;;;;;;;9.52;3.95;;;;;;;;;;5000548;28;20239;-59
2022/06/18 11:57:16;;;;;;;5.03;3.50;;;;;;;;;;5006534;28;20243;-59
2022/06/18 11:59:52;;;;;;;6.30;3.58;;;;;;;;;;5020241;28;20258;-59
2022/06/18 12:02:24;;;;;;;6.20;3.70;;;;;;;;;;5019942;28;20241;-59
2022/06/18 12:04:54;;;;;;;7.30;3.45;;;;;;;;;;5019841;28;20227;-59
2022/06/18 12:07:25;;;;;;;7.45;4.07;;;;;;;;;;5020191;28;20239;-59
2022/06/18 12:09:53;;;;;;;4.63;2.92;;;;;;;;;;5020125;28;20215;-59
2022/06/18 12:12:29;;;;;;;6.43;3.65;;;;;;;;;;5019926;28;20219;-60
2022/06/18 12:15:01;;;;;;;5.35;3.22;;;;;;;;;;5019957;28;20224;-59
2022/06/18 12:17:33;;;;;;;5.32;3.80;;;;;;;;;;5018422;28;20262;-59
2022/06/18 12:20:07;;;;;;;7.25;3.80;;;;;;;;;;5000088;28;20240;-59
2022/06/18 12:22:38;;;;;;;6.13;3.83;;;;;;;;;;5000471;28;20204;-59
2022/06/18 12:25:17;;;;;;;6.20;3.60;;;;;;;;;;5019643;28;20261;-59
2022/06/18 12:27:50;;;;;;;4.75;3.30;;;;;;;;;;5000382;28;20651;-59
2022/06/18 12:30:21;;;;;;;7.65;4.05;;;;;;;;;;5000153;28;20243;-59
2022/06/18 12:32:54;;;;;;;6.25;3.90;;;;;;;;;;5006935;28;20725;-59
2022/06/18 12:35:28;;;;;;;5.57;4.00;;;;;;;;;;5005083;28;20235;-59
2022/06/18 12:38:01;;;;;;;5.25;3.80;;;;;;;;;;4999663;28;20287;-60
2022/06/18 12:40:34;;;;;;;4.93;3.78;;;;;;;;;;4999385;28;20290;-59
2022/06/18 12:43:05;;;;;;;9.27;3.92;;;;;;;;;;5000178;28;20286;-59
2022/06/18 12:45:36;;;;;;;7.80;4.13;;;;;;;;;;5000919;28;20271;-59
2022/06/18 12:48:11;;;;;;;6.25;3.83;;;;;;;;;;4999597;28;20214;-59
2022/06/18 12:50:44;;;;;;;7.68;3.78;;;;;;;;;;5006121;28;20554;-60
2022/06/18 12:53:19;;;;;;;7.32;4.25;;;;;;;;;;5018837;28;20251;-61
2022/06/18 12:55:52;;;;;;;5.78;3.90;;;;;;;;;;5018522;28;20215;-61
2022/06/18 12:58:23;;;;;;;6.13;4.20;;;;;;;;;;5019155;28;20227;-61
2022/06/18 13:00:52;;;;;;;4.13;3.75;;;;;;;;;;5019197;28;20212;-60
2022/06/18 13:03:30;;;;;;;6.85;4.13;;;;;;;;;;5018840;28;20231;-61
2022/06/18 13:06:01;;;;;;;8.68;4.40;;;;;;;;;;5019110;28;20236;-61
2022/06/18 13:08:41;;;;;;;9.50;3.97;;;;;;;;;;5018822;28;20686;-61
2022/06/18 13:11:15;;;;;;;5.45;4.28;;;;;;;;;;5018924;28;20247;-61
2022/06/18 13:13:48;;;;;;;8.23;4.38;;;;;;;;;;5018621;28;20232;-61
2022/06/18 13:16:18;;;;;;;9.60;3.72;;;;;;;;;;5018472;28;20211;-61
2022/06/18 13:18:51;;;;;;;7.38;4.47;;;;;;;;;;5006758;28;20235;-61
2022/06/18 13:21:19;;;;;;;5.38;3.42;;;;;;;;;;4999204;28;20208;-61
2022/06/18 13:29:26;;;;;;;6.00;4.22;;;;;;;;;;4998814;28;20205;-61
2022/06/18 13:32:00;;;;;;;7.38;4.30;;;;;;;;;;4998983;28;20251;-61
2022/06/18 13:34:34;;;;;;;8.85;3.95;;;;;;;;;;5000551;28;20224;-61
2022/06/18 13:37:05;;;;;;;11.75;4.20;;;;;;;;;;4998658;28;20267;-61
2022/06/18 13:39:38;;;;;;;6.25;4.20;;;;;;;;;;4998549;28;20683;-61
2022/06/18 13:42:11;;;;;;;9.48;3.95;;;;;;;;;;4998585;28;20205;-61
2022/06/18 13:44:45;;;;;;;7.78;4.00;;;;;;;;;;5001333;28;20259;-61
2022/06/18 13:47:17;;;;;;;10.65;4.30;;;;;;;;;;4998344;28;20678;-61
2022/06/18 13:49:49;;;;;;;7.60;3.60;;;;;;;;;;4997686;28;20213;-61
2022/06/18 13:52:18;;;;;;;7.25;4.10;;;;;;;;;;5005424;28;20240;-61
2022/06/18 13:54:47;;;;;;;9.15;4.53;;;;;;;;;;5018155;28;20224;-61
2022/06/18 13:57:16;;;;;;;8.35;4.25;;;;;;;;;;5017727;28;20282;-61
2022/06/18 13:59:51;;;;;;;6.38;4.03;;;;;;;;;;5018028;28;20208;-61
2022/06/18 14:02:24;;;;;;;9.73;4.50;;;;;;;;;;5018255;28;20253;-61
2022/06/18 14:04:59;;;;;;;8.50;4.20;;;;;;;;;;5017502;28;20283;-61
2022/06/18 14:07:28;;;;;;;10.05;4.22;;;;;;;;;;5017788;28;20246;-61
2022/06/18 14:10:00;;;;;;;8.95;4.20;;;;;;;;;;5017438;28;20212;-61
2022/06/18 14:12:31;;;;;;;6.47;4.35;;;;;;;;;;5017755;28;20218;-61
2022/06/18 14:15:06;;;;;;;11.10;5.18;;;;;;;;;;5017637;28;20259;-61
2022/06/18 14:17:41;;;;;;;9.43;4.10;;;;;;;;;;5016165;28;20710;-61
2022/06/18 14:20:21;;;;;;;7.32;4.25;;;;;;;;;;4997959;28;20240;-61
2022/06/18 14:22:57;;;;;;;14.63;4.32;;;;;;;;;;5000685;28;20218;-61
2022/06/18 14:25:25;;;;;;;7.03;4.63;;;;;;;;;;5012337;28;20208;-61
2022/06/18 14:27:53;;;;;;;4.30;3.78;;;;;;;;;;4998214;28;20216;-61
2022/06/18 14:30:23;;;;;;;8.73;4.15;;;;;;;;;;4998009;28;20646;-61
2022/06/18 14:32:56;;;;;;;11.45;4.15;;;;;;;;;;5004192;28;20689;-61
2022/06/18 14:35:31;;;;;;;7.38;3.72;;;;;;;;;;5004448;28;20201;-61
2022/06/18 14:38:01;;;;;;;10.30;4.28;;;;;;;;;;4997772;28;20326;-61
2022/06/18 14:40:31;;;;;;;7.38;4.30;;;;;;;;;;4997724;28;20212;-61
2022/06/18 14:43:17;;;;;;;5.13;3.95;;;;;;;;;;4998010;28;20230;-61
2022/06/18 14:45:48;;;;;;;6.15;4.00;;;;;;;;;;4998372;28;20219;-61
2022/06/18 14:48:22;;;;;;;11.80;4.60;;;;;;;;;;4997722;28;20212;-61
2022/06/18 14:51:17;;;;;;;5.07;3.95;;;;;;;;;;4997645;28;20217;-61
2022/06/18 14:54:06;;;;;;;7.78;4.35;;;;;;;;;;4997725;28;20232;-61
2022/06/18 14:56:49;;;;;;;6.55;4.50;;;;;;;;;;4997613;28;20297;-61
2022/06/18 14:59:34;;;;;;;10.90;4.93;;;;;;;;;;4997739;28;20256;-61
2022/06/18 15:02:05;;;;;;;9.88;4.53;;;;;;;;;;5007107;28;20261;-60
2022/06/18 15:04:35;;;;;;;7.20;4.10;;;;;;;;;;5021141;28;20228;-61
2022/06/18 15:07:04;;;;;;;6.93;4.88;;;;;;;;;;5020979;28;20273;-60
2022/06/18 15:09:33;;;;;;;8.70;4.10;;;;;;;;;;5021120;28;20207;-60
2022/06/18 15:12:03;;;;;;;8.70;4.75;;;;;;;;;;5021002;28;20215;-61
2022/06/18 15:14:31;;;;;;;9.00;4.15;;;;;;;;;;5020898;28;20710;-60
2022/06/18 15:17:18;;;;;;;12.48;3.95;;;;;;;;;;5021117;28;20204;-61
2022/06/18 15:19:54;;;;;;;8.23;4.03;;;;;;;;;;5001156;28;20228;-60
2022/06/18 15:22:40;;;;;;;15.77;4.30;;;;;;;;;;5001043;28;20212;-60
2022/06/18 15:25:25;;;;;;;5.78;3.55;;;;;;;;;;5020373;28;20219;-60